Manfred, Arkansas
Current Conditions -  °F | °C
As of 1:53 PM on Friday 31 Oct 2014 (Local Time) from KMWT Reporting Station
Broken Clouds Broken Clouds  
Wind Chill: 62°   Ceiling: 4700
Heat Index: 62°   Visibility: 10mi
Dew Point: 40°   Wind: 6mph
Humidity: 44%   Direction: NA
Pressure: 30.23"   Gusts: 17mph
Location:  34.4166°N, 93.6435°W
Report Text: KMWT 311853Z AUTO VRB05G15KT 10SM BKN047 17/04 A3023 RMK AO2 SLP236 T01670044
Loading
Personal Weather Stations






























Interactive Weather Map
Tropical Storm Tracking
New forecast layout! Learn more

10-Day Weather Forecast

Advertisements
Track Severe Weather on mobile